Time;durP1;ratioP1;P1;durP2;ratioP2;P2;SDS_P1;SDS_P2;PMS_P1;PMS_P2;Temp;Humidity;BMP_temperature;BMP_pressure;BME280_temperature;BME280_humidity;BME280_pressure;Samples;Min_cycle;Max_cycle;Signal;HPM_P1;HPM_P2
2021/12/31 00:01:24;;;;;;;5.07;0.60;;;15.50;66.90;;;;;;5115623;28;20040;-67
2021/12/31 00:03:49;;;;;;;3.25;0.45;;;15.50;66.90;;;;;;5114339;28;20036;-67
2021/12/31 00:06:15;;;;;;;4.15;0.40;;;15.50;66.90;;;;;;5114108;28;20402;-67
2021/12/31 00:08:41;;;;;;;3.38;0.50;;;15.50;66.90;;;;;;5114220;28;20096;-67
2021/12/31 00:11:06;;;;;;;2.97;0.55;;;15.50;67.00;;;;;;5115260;28;20122;-68
2021/12/31 00:13:32;;;;;;;3.58;0.50;;;15.50;66.90;;;;;;5113961;28;20043;-67
2021/12/31 00:15:58;;;;;;;2.88;0.70;;;15.50;67.00;;;;;;5113924;28;20075;-67
2021/12/31 00:18:23;;;;;;;2.30;0.55;;;15.50;66.90;;;;;;5115065;28;20028;-67
2021/12/31 00:20:49;;;;;;;5.15;0.63;;;15.50;66.90;;;;;;5113781;28;20043;-67
2021/12/31 00:23:17;;;;;;;2.88;0.40;;;15.50;66.90;;;;;;5113974;28;20046;-67
2021/12/31 00:25:43;;;;;;;2.85;0.50;;;15.50;66.90;;;;;;5115008;28;20111;-67
2021/12/31 00:28:10;;;;;;;3.08;0.60;;;15.50;66.90;;;;;;5114427;28;20089;-67
2021/12/31 00:30:37;;;;;;;2.60;0.40;;;15.50;66.80;;;;;;5115438;28;20054;-67
2021/12/31 00:33:04;;;;;;;3.08;0.50;;;15.50;66.80;;;;;;5114894;28;20177;-67
2021/12/31 00:35:32;;;;;;;3.17;0.50;;;15.50;66.70;;;;;;5114891;28;20114;-67
2021/12/31 00:37:58;;;;;;;1.85;0.43;;;15.50;66.70;;;;;;5114839;27;20040;-67
2021/12/31 00:40:26;;;;;;;2.78;0.50;;;15.50;66.70;;;;;;5114704;28;20040;-67
2021/12/31 00:42:52;;;;;;;4.10;0.82;;;15.50;66.70;;;;;;5114626;28;20394;-67
2021/12/31 00:45:21;;;;;;;2.78;0.40;;;15.50;66.60;;;;;;5114740;28;20032;-67
2021/12/31 00:47:48;;;;;;;3.42;0.50;;;15.50;66.70;;;;;;5114832;28;20043;-67
2021/12/31 00:50:16;;;;;;;3.83;0.65;;;15.50;66.60;;;;;;5113232;28;20510;-67
2021/12/31 00:52:42;;;;;;;1.27;0.45;;;15.50;66.70;;;;;;5113270;28;20043;-67
2021/12/31 00:55:10;;;;;;;3.15;0.35;;;15.50;66.80;;;;;;5112753;28;20487;-67
2021/12/31 00:57:35;;;;;;;2.33;0.32;;;15.50;66.80;;;;;;5113310;28;20047;-67
2021/12/31 01:00:02;;;;;;;2.88;0.47;;;15.50;66.60;;;;;;5114203;28;20027;-67
2021/12/31 01:02:29;;;;;;;2.05;0.40;;;15.50;66.70;;;;;;5114399;27;20050;-67
2021/12/31 01:04:55;;;;;;;3.65;0.77;;;15.50;66.80;;;;;;5112989;28;20058;-67
2021/12/31 01:07:20;;;;;;;2.25;0.30;;;15.50;66.70;;;;;;5112934;28;20126;-67
2021/12/31 01:09:46;;;;;;;1.95;0.32;;;15.50;66.70;;;;;;5112847;28;20126;-67
2021/12/31 01:12:13;;;;;;;1.75;0.38;;;15.50;66.70;;;;;;5112733;28;20043;-67
2021/12/31 01:14:51;;;;;;;2.30;0.93;;;15.50;66.70;;;;;;5112530;28;20055;-67
2021/12/31 01:17:22;;;;;;;4.85;0.88;;;15.50;66.70;;;;;;5112963;28;20032;-71
2021/12/31 01:19:48;;;;;;;;;;;15.50;66.70;;;;;;5112979;28;20046;-67
2021/12/31 01:22:17;;;;;;;2.88;0.40;;;15.50;66.60;;;;;;5114014;28;20294;-67
2021/12/31 01:24:44;;;;;;;4.95;0.70;;;15.50;66.60;;;;;;5112479;28;20040;-67
2021/12/31 01:27:11;;;;;;;3.08;0.50;;;15.50;66.60;;;;;;5112772;28;20148;-67
2021/12/31 01:29:37;;;;;;;2.42;0.40;;;15.50;66.60;;;;;;5113792;28;20058;-67
2021/12/31 01:32:03;;;;;;;3.03;0.60;;;15.50;66.60;;;;;;5112330;28;20475;-67
2021/12/31 01:34:29;;;;;;;1.80;0.70;;;15.50;66.60;;;;;;5112397;28;20055;-67
2021/12/31 01:36:55;;;;;;;2.33;0.30;;;15.50;66.60;;;;;;5113662;28;20059;-67
2021/12/31 01:39:20;;;;;;;3.30;0.50;;;15.50;66.60;;;;;;5112744;28;20067;-67
2021/12/31 01:41:46;;;;;;;1.92;0.40;;;15.50;66.60;;;;;;5112370;28;20043;-67
2021/12/31 01:44:12;;;;;;;2.00;0.50;;;15.50;66.60;;;;;;5113459;28;20044;-67
2021/12/31 01:46:53;;;;;;;2.78;0.43;;;15.50;66.60;;;;;;5113383;28;20119;-67
2021/12/31 01:49:21;;;;;;;2.08;0.30;;;15.50;66.60;;;;;;5112247;28;20051;-67
2021/12/31 01:51:46;;;;;;;2.47;0.60;;;15.50;66.60;;;;;;5112016;28;20043;-67
2021/12/31 01:54:12;;;;;;;2.97;1.05;;;15.50;66.60;;;;;;5112983;28;20112;-67
2021/12/31 01:56:38;;;;;;;1.92;0.28;;;15.50;66.70;;;;;;5112089;28;20086;-67
2021/12/31 01:59:06;;;;;;;3.35;0.40;;;15.50;66.70;;;;;;5112108;28;20417;-67
2021/12/31 02:01:32;;;;;;;2.25;0.60;;;15.50;66.70;;;;;;5111875;28;20043;-67
2021/12/31 02:03:59;;;;;;;2.10;0.30;;;15.50;66.60;;;;;;5112048;28;20106;-67
2021/12/31 02:06:25;;;;;;;4.60;0.85;;;15.50;66.60;;;;;;5111991;28;20043;-67
2021/12/31 02:08:51;;;;;;;3.55;0.32;;;15.50;66.60;;;;;;5113442;28;20035;-67
2021/12/31 02:11:18;;;;;;;3.78;0.32;;;15.50;66.60;;;;;;5111562;28;20647;-67
2021/12/31 02:13:43;;;;;;;3.38;0.43;;;15.50;66.60;;;;;;5112707;28;20035;-67
2021/12/31 02:16:12;;;;;;;2.00;0.30;;;15.50;66.60;;;;;;5112854;28;20114;-67
2021/12/31 02:18:42;;;;;;;1.88;0.30;;;15.50;66.60;;;;;;5111427;28;20471;-67
2021/12/31 02:21:12;;;;;;;3.55;0.40;;;15.50;66.60;;;;;;5111416;28;20077;-67
2021/12/31 02:23:46;;;;;;;1.98;0.40;;;15.50;66.60;;;;;;5111379;28;20040;-67
2021/12/31 02:26:12;;;;;;;2.85;0.45;;;15.50;66.60;;;;;;5111446;28;20040;-68
2021/12/31 02:28:39;;;;;;;3.78;0.50;;;15.50;66.70;;;;;;5111637;28;20031;-67
2021/12/31 02:31:05;;;;;;;2.38;0.47;;;15.50;66.60;;;;;;5111698;28;20390;-67
2021/12/31 02:33:31;;;;;;;2.22;0.60;;;15.50;66.70;;;;;;5111468;28;20053;-67
2021/12/31 02:36:02;;;;;;;4.15;0.82;;;15.50;66.70;;;;;;5111563;28;20046;-67
2021/12/31 02:38:28;;;;;;;1.52;0.40;;;15.50;66.70;;;;;;5111374;28;20446;-67
2021/12/31 02:40:54;;;;;;;1.83;0.50;;;15.50;66.70;;;;;;5111483;28;20115;-67
2021/12/31 02:43:23;;;;;;;3.00;0.70;;;15.50;66.80;;;;;;5112376;28;20075;-67
2021/12/31 02:45:49;;;;;;;3.17;0.52;;;15.50;66.70;;;;;;5111102;28;20124;-67
2021/12/31 02:48:24;;;;;;;1.75;0.50;;;15.50;66.70;;;;;;5110964;28;20079;-67
2021/12/31 02:50:50;;;;;;;2.95;0.45;;;15.50;66.70;;;;;;5110949;28;20046;-67
2021/12/31 02:53:15;;;;;;;1.15;0.45;;;15.50;66.70;;;;;;5110900;28;20047;-67
2021/12/31 02:55:44;;;;;;;2.58;1.00;;;15.50;66.80;;;;;;5112338;28;20047;-66
2021/12/31 02:58:10;;;;;;;2.03;0.43;;;15.50;66.80;;;;;;5111149;28;20035;-67
2021/12/31 03:00:40;;;;;;;2.45;0.50;;;15.50;66.80;;;;;;5111102;28;20123;-67
2021/12/31 03:03:08;;;;;;;3.08;0.40;;;15.50;66.80;;;;;;5110967;28;20045;-67
2021/12/31 03:05:36;;;;;;;2.13;0.60;;;15.50;66.80;;;;;;5111246;28;20035;-68
2021/12/31 03:08:03;;;;;;;1.75;0.35;;;15.50;66.80;;;;;;5112190;28;20082;-67
2021/12/31 03:10:32;;;;;;;2.28;0.63;;;15.60;67.00;;;;;;5110996;28;20088;-67
2021/12/31 03:12:58;;;;;;;1.55;0.45;;;15.60;66.90;;;;;;5111196;28;20075;-67
2021/12/31 03:15:25;;;;;;;2.30;0.40;;;15.50;66.90;;;;;;5112194;28;20036;-67
2021/12/31 03:17:53;;;;;;;2.58;0.63;;;15.50;66.90;;;;;;5112222;28;20036;-67
2021/12/31 03:20:35;;;;;;;2.17;0.40;;;15.50;66.90;;;;;;5111877;28;20035;-67
2021/12/31 03:23:03;;;;;;;3.55;0.43;;;15.50;66.90;;;;;;5112132;28;20050;-68
2021/12/31 03:25:28;;;;;;;2.35;0.65;;;15.50;66.90;;;;;;5112033;28;20489;-67
2021/12/31 03:27:58;;;;;;;2.30;0.43;;;15.50;67.00;;;;;;5111211;28;20048;-67
2021/12/31 03:30:24;;;;;;;1.60;0.40;;;15.50;67.10;;;;;;5110688;28;20047;-67
2021/12/31 03:32:49;;;;;;;1.85;0.32;;;15.50;67.00;;;;;;5112007;28;20036;-67
2021/12/31 03:35:15;;;;;;;3.20;0.50;;;15.50;67.00;;;;;;5093692;28;20039;-67
2021/12/31 03:37:40;;;;;;;1.77;0.35;;;15.50;67.00;;;;;;5110698;28;20522;-67
2021/12/31 03:40:07;;;;;;;1.77;0.35;;;15.50;67.00;;;;;;5111134;28;20036;-67
2021/12/31 03:42:32;;;;;;;2.08;0.50;;;15.50;66.90;;;;;;5110669;28;20479;-67
2021/12/31 03:44:58;;;;;;;2.30;0.45;;;15.50;67.00;;;;;;5110465;28;20044;-67
2021/12/31 03:47:24;;;;;;;2.40;0.50;;;15.60;67.00;;;;;;5110682;28;20050;-67
2021/12/31 03:49:50;;;;;;;1.52;0.43;;;15.50;66.90;;;;;;5111756;28;20067;-67
2021/12/31 03:52:15;;;;;;;3.00;0.50;;;15.50;67.00;;;;;;5110581;28;20505;-67
2021/12/31 03:54:41;;;;;;;2.20;0.30;;;15.50;67.00;;;;;;5110360;28;20113;-67
2021/12/31 03:57:07;;;;;;;2.08;0.40;;;15.50;66.90;;;;;;5110425;28;20035;-67
2021/12/31 03:59:33;;;;;;;1.85;0.40;;;15.60;67.10;;;;;;5111789;28;20050;-66
2021/12/31 04:02:01;;;;;;;2.15;0.55;;;15.50;67.00;;;;;;5111958;28;20036;-67
2021/12/31 04:04:30;;;;;;;1.50;0.50;;;15.60;67.10;;;;;;5114068;28;20078;-67
2021/12/31 04:06:55;;;;;;;1.90;0.50;;;15.50;67.20;;;;;;5114098;28;20571;-67
2021/12/31 04:09:21;;;;;;;1.85;0.30;;;15.50;67.10;;;;;;5113998;28;20039;-67
2021/12/31 04:11:47;;;;;;;1.13;0.40;;;15.60;67.10;;;;;;5115519;28;20047;-68
2021/12/31 04:14:12;;;;;;;1.30;0.43;;;15.50;67.00;;;;;;5113998;28;20074;-67
2021/12/31 04:16:38;;;;;;;2.05;0.47;;;15.50;67.00;;;;;;5115143;28;20070;-67
2021/12/31 04:19:04;;;;;;;2.47;0.50;;;15.60;67.10;;;;;;5114123;28;20028;-67
2021/12/31 04:21:31;;;;;;;1.23;0.50;;;15.50;67.10;;;;;;5113715;28;20501;-67
2021/12/31 04:24:54;;;;;;;2.72;0.57;;;15.60;67.20;;;;;;5113841;28;20088;-67
2021/12/31 04:26:42;;;;;;;1.15;0.82;;;15.50;67.10;;;;;;5115126;28;20050;-67
2021/12/31 04:29:07;;;;;;;1.65;0.60;;;15.60;67.20;;;;;;5113926;28;20039;-67
2021/12/31 04:31:33;;;;;;;0.98;0.30;;;15.60;67.20;;;;;;5113563;28;20504;-67
2021/12/31 04:34:03;;;;;;;1.33;0.30;;;15.50;67.10;;;;;;5114779;28;20036;-67
2021/12/31 04:36:29;;;;;;;2.60;0.40;;;15.50;67.10;;;;;;5113534;28;20039;-67
2021/12/31 04:38:55;;;;;;;1.50;0.45;;;15.50;67.10;;;;;;5114861;28;20066;-67
2021/12/31 04:41:20;;;;;;;2.50;0.40;;;15.50;67.10;;;;;;5114791;28;20069;-67
2021/12/31 04:43:46;;;;;;;2.50;0.60;;;15.50;67.10;;;;;;5114816;28;20038;-67
2021/12/31 04:46:12;;;;;;;0.95;0.30;;;15.60;67.10;;;;;;5113621;28;20390;-67
2021/12/31 04:48:37;;;;;;;2.22;0.40;;;15.60;67.30;;;;;;5113250;28;20075;-66
2021/12/31 04:51:03;;;;;;;3.03;1.13;;;15.60;67.20;;;;;;5113345;28;20047;-67
2021/12/31 04:53:28;;;;;;;1.83;0.47;;;15.50;67.20;;;;;;5114484;28;20035;-67
2021/12/31 04:55:54;;;;;;;1.60;0.32;;;15.60;67.20;;;;;;5112765;28;20469;-68
2021/12/31 04:58:20;;;;;;;1.75;0.25;;;15.60;67.20;;;;;;5113017;28;20043;-67
2021/12/31 05:00:45;;;;;;;1.65;0.30;;;15.50;67.10;;;;;;5113406;28;20088;-67
2021/12/31 05:03:11;;;;;;;1.23;0.65;;;15.60;67.20;;;;;;5112983;28;20372;-66
2021/12/31 05:05:37;;;;;;;2.20;0.40;;;15.50;68.00;;;;;;5114296;28;20051;-67
2021/12/31 05:08:04;;;;;;;2.65;0.57;;;15.60;67.20;;;;;;5114381;28;20394;-67
2021/12/31 05:10:31;;;;;;;1.42;0.32;;;15.60;67.20;;;;;;5114190;28;20032;-67
2021/12/31 05:12:58;;;;;;;1.65;0.55;;;15.60;67.20;;;;;;5113134;28;20419;-67
2021/12/31 05:15:27;;;;;;;1.73;0.30;;;15.50;67.10;;;;;;5112648;28;20040;-67
2021/12/31 05:17:54;;;;;;;1.15;0.20;;;15.50;67.00;;;;;;5112634;28;20084;-67
2021/12/31 05:20:20;;;;;;;2.65;0.40;;;15.50;67.00;;;;;;5112660;28;20075;-67
2021/12/31 05:22:46;;;;;;;2.25;0.30;;;15.50;67.00;;;;;;5112637;28;20047;-67
2021/12/31 05:25:12;;;;;;;1.00;0.30;;;15.60;67.10;;;;;;5112655;28;20050;-67
2021/12/31 05:27:38;;;;;;;1.88;0.30;;;15.60;67.10;;;;;;5114024;28;20038;-67
2021/12/31 05:30:07;;;;;;;1.23;0.30;;;15.60;67.10;;;;;;5112838;28;20387;-67
2021/12/31 05:32:33;;;;;;;1.00;0.28;;;15.50;67.00;;;;;;5113789;28;20070;-67
2021/12/31 05:34:58;;;;;;;1.75;0.30;;;15.60;67.00;;;;;;5112227;28;20476;-67
2021/12/31 05:37:27;;;;;;;1.45;0.20;;;15.60;67.00;;;;;;5112373;28;20104;-67
2021/12/31 05:39:53;;;;;;;1.40;0.30;;;15.50;66.90;;;;;;5113714;28;20027;-67
2021/12/31 05:42:18;;;;;;;1.50;0.30;;;15.60;66.90;;;;;;5113624;28;20379;-66
2021/12/31 05:44:44;;;;;;;1.30;0.30;;;15.60;66.90;;;;;;5112480;28;20392;-67
2021/12/31 05:47:10;;;;;;;1.83;0.30;;;15.60;66.90;;;;;;5113544;28;20050;-67
2021/12/31 05:49:36;;;;;;;1.73;0.20;;;15.60;66.90;;;;;;5112291;28;20051;-67
2021/12/31 05:52:02;;;;;;;2.15;0.30;;;15.50;66.80;;;;;;5113623;28;20044;-67
2021/12/31 05:54:27;;;;;;;0.95;0.28;;;15.60;66.80;;;;;;5111799;28;20074;-67
2021/12/31 05:56:53;;;;;;;1.10;0.30;;;15.60;66.80;;;;;;5112229;28;20068;-67
2021/12/31 05:59:19;;;;;;;1.45;0.20;;;15.60;66.80;;;;;;5113230;28;20191;-67
2021/12/31 06:01:44;;;;;;;1.20;0.20;;;15.60;66.80;;;;;;5111920;28;20181;-67
2021/12/31 06:04:10;;;;;;;2.05;0.30;;;15.60;66.70;;;;;;5111688;28;20035;-67
2021/12/31 06:06:35;;;;;;;2.05;0.22;;;15.50;66.70;;;;;;5111995;28;20126;-67
2021/12/31 06:09:01;;;;;;;1.35;0.30;;;15.60;66.70;;;;;;5113071;28;20038;-66
2021/12/31 06:11:29;;;;;;;1.55;0.40;;;15.50;66.70;;;;;;5111716;28;20043;-67
2021/12/31 06:14:01;;;;;;;1.10;0.20;;;15.50;66.60;;;;;;5111773;28;20143;-67
2021/12/31 06:16:28;;;;;;;1.15;0.20;;;15.60;66.70;;;;;;5111802;28;20048;-67
2021/12/31 06:18:57;;;;;;;2.20;0.40;;;15.50;66.60;;;;;;5094933;28;20075;-67
2021/12/31 06:21:22;;;;;;;1.65;0.30;;;15.50;66.60;;;;;;5111705;28;20082;-67
2021/12/31 06:23:48;;;;;;;0.65;0.20;;;15.50;66.60;;;;;;5112788;28;20547;-67
2021/12/31 06:26:16;;;;;;;0.63;0.30;;;15.50;66.50;;;;;;5112558;28;20112;-66
2021/12/31 06:28:42;;;;;;;1.27;0.20;;;15.50;66.50;;;;;;5111746;28;20100;-67
2021/12/31 06:31:08;;;;;;;2.35;0.35;;;15.50;66.60;;;;;;5111291;28;20395;-67
2021/12/31 06:33:33;;;;;;;0.75;0.40;;;15.50;66.60;;;;;;5112548;28;20028;-67
2021/12/31 06:35:59;;;;;;;1.35;0.20;;;15.50;66.60;;;;;;5112750;28;20028;-67
2021/12/31 06:38:25;;;;;;;1.65;0.40;;;15.50;66.60;;;;;;5111341;28;20478;-67
2021/12/31 06:40:50;;;;;;;2.05;0.30;;;15.50;66.60;;;;;;5111488;28;20039;-67
2021/12/31 06:43:16;;;;;;;1.60;0.38;;;15.50;66.60;;;;;;5111270;28;20403;-67
2021/12/31 06:45:41;;;;;;;1.30;0.20;;;15.50;66.50;;;;;;5111311;28;20035;-67
2021/12/31 06:48:07;;;;;;;0.95;0.20;;;15.50;66.60;;;;;;5111069;28;20130;-67
2021/12/31 06:50:33;;;;;;;0.82;0.30;;;15.50;66.50;;;;;;5111344;28;20040;-67
2021/12/31 06:53:01;;;;;;;1.17;0.30;;;15.50;66.60;;;;;;5112808;28;20067;-67
2021/12/31 06:55:26;;;;;;;2.30;0.22;;;15.50;66.60;;;;;;5112050;28;20095;-67
2021/12/31 06:57:52;;;;;;;0.88;0.30;;;15.50;66.50;;;;;;5111268;28;20502;-68
2021/12/31 07:00:21;;;;;;;1.67;0.25;;;15.50;66.50;;;;;;5112365;28;20047;-67
2021/12/31 07:02:46;;;;;;;1.63;0.25;;;15.40;66.40;;;;;;5111291;28;20360;-67
2021/12/31 07:05:12;;;;;;;1.63;0.28;;;15.50;66.50;;;;;;5110974;28;20424;-66
2021/12/31 07:07:38;;;;;;;0.80;0.30;;;15.50;66.60;;;;;;5110997;28;20044;-67
2021/12/31 07:10:05;;;;;;;1.98;0.20;;;15.50;66.60;;;;;;5111160;28;20039;-67
2021/12/31 07:12:31;;;;;;;1.13;0.35;;;15.50;66.60;;;;;;5112405;28;20048;-67
2021/12/31 07:14:57;;;;;;;1.00;0.30;;;15.50;66.50;;;;;;5112183;28;20097;-67
2021/12/31 07:17:22;;;;;;;1.77;0.20;;;15.50;66.50;;;;;;5110837;28;20391;-67
2021/12/31 07:19:48;;;;;;;1.20;0.30;;;15.40;66.40;;;;;;5112093;28;20122;-67
2021/12/31 07:22:16;;;;;;;1.27;0.20;;;15.50;66.60;;;;;;5110792;28;20471;-67
2021/12/31 07:24:42;;;;;;;1.02;0.20;;;15.40;66.50;;;;;;5110862;28;20071;-67
2021/12/31 07:27:11;;;;;;;1.83;0.20;;;15.40;66.40;;;;;;5112144;28;20075;-67
2021/12/31 07:29:36;;;;;;;1.00;0.28;;;15.40;66.50;;;;;;5112075;28;20119;-67
2021/12/31 07:32:02;;;;;;;1.27;0.20;;;15.40;66.50;;;;;;5110681;28;20135;-67
2021/12/31 07:34:28;;;;;;;1.88;0.28;;;15.40;66.40;;;;;;5111964;28;20067;-67
2021/12/31 07:36:53;;;;;;;2.17;0.20;;;15.40;66.40;;;;;;5112444;28;20042;-67
2021/12/31 07:39:23;;;;;;;1.73;0.40;;;15.40;66.40;;;;;;5116153;28;20038;-67
2021/12/31 07:41:49;;;;;;;0.60;0.20;;;15.40;66.40;;;;;;5114707;28;20040;-67
2021/12/31 07:44:15;;;;;;;2.05;0.32;;;15.40;66.30;;;;;;5114724;28;20047;-67
2021/12/31 07:46:43;;;;;;;1.63;0.30;;;15.40;66.30;;;;;;5114919;28;20464;-67
2021/12/31 07:49:09;;;;;;;2.10;0.45;;;15.40;66.40;;;;;;5114336;28;20483;-67
2021/12/31 07:51:35;;;;;;;1.35;0.30;;;15.40;66.40;;;;;;5116017;28;20035;-67
2021/12/31 07:54:00;;;;;;;1.15;0.20;;;15.40;66.30;;;;;;5114229;28;20403;-67
2021/12/31 07:56:26;;;;;;;0.70;0.20;;;15.40;66.30;;;;;;5114126;28;20048;-66
2021/12/31 07:58:52;;;;;;;0.60;0.20;;;15.40;66.30;;;;;;5115455;28;20035;-67
2021/12/31 08:01:17;;;;;;;1.42;0.30;;;15.40;66.30;;;;;;5114439;28;20085;-67
2021/12/31 08:03:43;;;;;;;0.95;0.20;;;15.40;66.30;;;;;;5114212;28;20039;-67
2021/12/31 08:06:09;;;;;;;0.75;0.20;;;15.40;66.30;;;;;;5115321;28;20042;-66
2021/12/31 08:08:34;;;;;;;1.48;0.20;;;15.40;66.30;;;;;;5114540;28;20494;-67
2021/12/31 08:11:00;;;;;;;1.50;0.20;;;15.40;66.30;;;;;;5115519;28;20027;-67
2021/12/31 08:13:26;;;;;;;1.25;0.30;;;15.40;66.30;;;;;;5114053;28;20058;-67
2021/12/31 08:15:52;;;;;;;1.70;0.20;;;15.40;66.30;;;;;;5113868;28;20071;-67
2021/12/31 08:18:17;;;;;;;1.10;0.20;;;15.40;66.30;;;;;;5115174;28;20067;-67
2021/12/31 08:20:43;;;;;;;0.82;0.30;;;15.40;66.30;;;;;;5115112;28;20508;-67
2021/12/31 08:23:11;;;;;;;0.93;0.20;;;15.40;66.30;;;;;;5114141;28;20050;-67
2021/12/31 08:25:38;;;;;;;1.30;0.25;;;15.40;66.30;;;;;;5115221;28;20039;-67
2021/12/31 08:28:05;;;;;;;0.88;0.20;;;15.30;66.30;;;;;;5113799;28;20118;-67
2021/12/31 08:30:30;;;;;;;1.25;0.20;;;15.40;66.30;;;;;;5114105;28;20432;-67
2021/12/31 08:32:59;;;;;;;1.05;0.20;;;15.40;66.30;;;;;;5113466;28;20048;-67
2021/12/31 08:35:24;;;;;;;0.80;0.20;;;15.40;66.30;;;;;;5114747;28;20547;-67
2021/12/31 08:37:51;;;;;;;1.42;0.20;;;15.40;66.30;;;;;;5113647;28;20127;-67
2021/12/31 08:40:16;;;;;;;1.35;0.28;;;15.40;66.30;;;;;;5113682;28;20165;-67
2021/12/31 08:42:42;;;;;;;1.50;0.25;;;15.40;66.30;;;;;;5113767;28;20110;-67
2021/12/31 08:45:08;;;;;;;1.08;0.20;;;15.40;66.20;;;;;;5113281;28;20492;-67
2021/12/31 08:47:34;;;;;;;1.08;0.30;;;15.40;66.20;;;;;;5113024;28;20035;-67
2021/12/31 08:50:00;;;;;;;1.17;0.20;;;15.40;66.20;;;;;;5113470;28;20046;-69
2021/12/31 08:52:26;;;;;;;1.77;0.20;;;15.40;66.20;;;;;;5113477;28;20391;-67
2021/12/31 08:54:51;;;;;;;1.40;0.20;;;15.40;66.20;;;;;;5114381;28;20624;-67
2021/12/31 08:57:17;;;;;;;1.05;0.20;;;15.40;66.20;;;;;;5113138;28;20058;-67
2021/12/31 08:59:43;;;;;;;0.75;0.20;;;15.40;66.20;;;;;;5114420;28;20023;-67
2021/12/31 09:02:13;;;;;;;0.93;0.20;;;15.40;66.20;;;;;;5113333;28;20043;-67
2021/12/31 09:04:39;;;;;;;2.08;0.20;;;15.40;66.20;;;;;;5112946;28;20502;-67
2021/12/31 09:07:05;;;;;;;1.40;0.20;;;15.40;66.10;;;;;;5114217;28;20040;-67
2021/12/31 09:09:30;;;;;;;1.30;0.25;;;15.40;66.10;;;;;;5112828;28;20126;-67
2021/12/31 09:11:56;;;;;;;0.68;0.20;;;15.40;66.10;;;;;;5114146;28;20043;-67
2021/12/31 09:14:22;;;;;;;1.05;0.30;;;15.40;66.20;;;;;;5112714;28;20089;-67
2021/12/31 09:16:50;;;;;;;1.60;0.30;;;15.40;66.20;;;;;;5112963;28;20383;-67
2021/12/31 09:19:15;;;;;;;0.90;0.20;;;15.40;66.10;;;;;;5112732;28;20491;-67
2021/12/31 09:21:41;;;;;;;0.55;0.20;;;15.40;66.10;;;;;;5113793;28;20042;-67
2021/12/31 09:24:08;;;;;;;1.63;0.50;;;15.40;66.20;;;;;;5112907;28;20387;-66
2021/12/31 09:26:33;;;;;;;0.38;0.20;;;15.40;66.10;;;;;;5113931;28;20130;-67
2021/12/31 09:28:59;;;;;;;0.85;0.30;;;15.40;66.10;;;;;;5112564;28;20099;-67
2021/12/31 09:31:25;;;;;;;1.50;0.20;;;15.40;66.00;;;;;;5113768;28;20089;-67
2021/12/31 09:33:50;;;;;;;0.70;0.20;;;15.40;66.00;;;;;;5113625;28;20506;-67
2021/12/31 09:36:19;;;;;;;1.40;0.25;;;15.40;66.00;;;;;;5112546;28;20513;-67
2021/12/31 09:38:45;;;;;;;1.00;0.20;;;15.50;66.00;;;;;;5112313;28;20471;-67
2021/12/31 09:41:10;;;;;;;0.98;0.20;;;15.50;65.90;;;;;;5112479;28;20039;-67
2021/12/31 09:43:38;;;;;;;0.60;0.20;;;15.50;65.90;;;;;;5113602;28;20111;-66
2021/12/31 09:46:04;;;;;;;1.33;0.30;;;15.50;65.90;;;;;;5113449;28;20031;-67
2021/12/31 09:48:29;;;;;;;2.08;0.45;;;15.50;65.80;;;;;;5112451;28;20509;-67
2021/12/31 09:51:02;;;;;;;0.68;0.20;;;15.50;65.80;;;;;;5112340;28;20068;-67
2021/12/31 09:53:28;;;;;;;1.20;0.30;;;15.50;65.80;;;;;;5112056;28;20475;-67
2021/12/31 09:55:55;;;;;;;1.83;0.20;;;15.50;65.80;;;;;;5111506;28;20058;-67
2021/12/31 09:58:27;;;;;;;0.63;0.20;;;15.40;65.70;;;;;;5111794;28;20059;-66
2021/12/31 10:00:57;;;;;;;1.05;0.20;;;15.50;65.80;;;;;;5112761;28;20050;-67
2021/12/31 10:03:28;;;;;;;1.10;0.50;;;15.50;65.70;;;;;;5111594;28;20122;-67
2021/12/31 10:05:57;;;;;;;0.70;0.22;;;15.50;65.70;;;;;;5100711;28;20035;-67
2021/12/31 10:08:26;;;;;;;0.90;0.20;;;15.50;65.70;;;;;;5111525;28;20105;-67
2021/12/31 10:11:17;;;;;;;1.45;0.30;;;15.50;65.70;;;;;;5113080;28;20459;-66
2021/12/31 10:13:48;;;;;;;2.58;0.85;;;15.50;66.40;;;;;;5110823;28;20035;-67
2021/12/31 10:21:50;;;;;;;2.97;0.77;;;15.50;66.20;;;;;;5129351;27;20425;-67
2021/12/31 10:27:02;;;;;;;1.23;0.30;;;15.50;66.70;;;;;;5151622;27;1208288;-67
2021/12/31 10:29:28;;;;;;;1.55;0.43;;;15.50;65.90;;;;;;5153373;27;20098;-67
2021/12/31 10:31:54;;;;;;;1.65;0.30;;;15.50;65.90;;;;;;5153064;27;20122;-67
2021/12/31 10:34:37;;;;;;;0.88;0.20;;;15.50;65.90;;;;;;5153287;27;20035;-67
2021/12/31 10:37:15;;;;;;;3.88;0.40;;;15.50;65.90;;;;;;5153332;27;20070;-67
2021/12/31 10:39:56;;;;;;;0.73;0.30;;;15.50;65.90;;;;;;5171547;27;20482;-68
2021/12/31 10:42:31;;;;;;;0.70;0.20;;;15.50;65.90;;;;;;5153355;27;20469;-67
2021/12/31 10:44:58;;;;;;;0.70;0.40;;;15.50;66.00;;;;;;5152991;27;20047;-67
2021/12/31 10:47:37;;;;;;;1.15;0.30;;;15.50;65.90;;;;;;5152758;27;20116;-67
2021/12/31 10:53:03;;;;;;;1.42;0.25;;;15.50;65.90;;;;;;5130338;27;20350;-67
2021/12/31 10:55:30;;;;;;;1.65;0.32;;;15.50;65.90;;;;;;5129031;27;20056;-67
2021/12/31 10:58:04;;;;;;;2.08;0.40;;;15.50;65.90;;;;;;5129183;28;20047;-67
2021/12/31 11:00:34;;;;;;;1.15;0.30;;;15.50;65.80;;;;;;5128813;28;20487;-67
2021/12/31 11:03:03;;;;;;;1.40;0.20;;;15.50;65.80;;;;;;5129154;27;20047;-67
2021/12/31 11:05:28;;;;;;;0.73;0.20;;;15.50;65.80;;;;;;5128723;27;20100;-66
2021/12/31 11:07:59;;;;;;;1.00;0.32;;;15.50;65.70;;;;;;5130122;28;20039;-67
2021/12/31 11:10:27;;;;;;;0.98;0.25;;;15.50;65.70;;;;;;5130008;27;20040;-67
2021/12/31 11:12:54;;;;;;;0.70;0.20;;;15.50;65.70;;;;;;5128616;28;20478;-67
2021/12/31 11:15:20;;;;;;;0.75;0.20;;;15.50;65.70;;;;;;5129805;27;20057;-67
2021/12/31 11:17:47;;;;;;;1.17;0.40;;;15.50;65.70;;;;;;5128539;28;20039;-68
2021/12/31 11:20:22;;;;;;;1.08;0.50;;;15.50;65.60;;;;;;5129849;27;20103;-67
2021/12/31 11:22:49;;;;;;;1.40;0.22;;;15.60;65.70;;;;;;5129835;27;20040;-66
2021/12/31 11:27:57;;;;;;;1.63;0.40;;;15.50;65.70;;;;;;5152618;27;1171490;-67
2021/12/31 11:30:40;;;;;;;0.68;0.30;;;15.50;65.70;;;;;;5153071;27;20057;-68
2021/12/31 11:35:46;;;;;;;0.98;0.40;;;15.50;65.70;;;;;;5130230;27;20533;-67
2021/12/31 11:41:14;;;;;;;1.67;0.30;;;15.50;65.70;;;;;;5130285;27;20387;-67
2021/12/31 11:43:41;;;;;;;1.05;0.38;;;15.50;65.70;;;;;;5128917;28;20051;-67
2021/12/31 11:48:53;;;;;;;1.10;0.28;;;15.50;65.70;;;;;;5154909;27;1161295;-67
2021/12/31 11:51:38;;;;;;;1.02;0.40;;;15.50;65.70;;;;;;5153349;27;20079;-67
2021/12/31 11:59:27;;;;;;;1.52;0.45;;;15.50;65.70;;;;;;5089313;27;20904;-67
2021/12/31 12:02:20;;;;;;;0.75;0.32;;;15.50;65.70;;;;;;5088109;28;20048;-67
2021/12/31 12:07:46;;;;;;;1.65;0.40;;;15.50;65.70;;;;;;5150878;27;20656;-67
2021/12/31 12:10:15;;;;;;;1.73;0.40;;;15.50;65.80;;;;;;5129203;28;20134;-67
2021/12/31 12:12:48;;;;;;;1.10;0.47;;;15.50;65.80;;;;;;5128933;28;20554;-66
2021/12/31 12:17:59;;;;;;;3.42;0.50;;;15.50;65.90;;;;;;5150945;27;20106;-67
2021/12/31 12:20:34;;;;;;;1.52;0.40;;;15.50;65.90;;;;;;5128961;28;20134;-67
2021/12/31 12:23:10;;;;;;;3.20;1.00;;;15.50;65.90;;;;;;5130337;27;20043;-67
2021/12/31 12:25:36;;;;;;;2.30;1.20;;;15.50;65.90;;;;;;5130269;27;20035;-67
2021/12/31 12:28:07;;;;;;;1.85;0.68;;;15.50;65.90;;;;;;5129041;28;20043;-67
2021/12/31 12:30:36;;;;;;;1.52;0.60;;;15.40;65.90;;;;;;5128776;28;20096;-67
2021/12/31 12:33:17;;;;;;;2.65;1.00;;;15.40;65.90;;;;;;5130275;27;20114;-67
2021/12/31 12:35:49;;;;;;;2.15;0.85;;;15.40;66.00;;;;;;5129923;27;20061;-67
2021/12/31 12:38:25;;;;;;;1.65;0.95;;;15.40;66.90;;;;;;5128619;28;20288;-67
2021/12/31 12:43:36;;;;;;;1.80;0.70;;;15.40;66.20;;;;;;5130752;27;20346;-67
2021/12/31 12:46:07;;;;;;;2.88;0.88;;;15.40;66.40;;;;;;5128969;28;20483;-67
2021/12/31 12:48:42;;;;;;;1.80;0.77;;;15.40;66.40;;;;;;5128894;27;20491;-68
2021/12/31 12:51:11;;;;;;;1.95;0.68;;;15.40;66.80;;;;;;5129161;27;20035;-67
2021/12/31 12:53:40;;;;;;;1.52;0.80;;;15.40;66.60;;;;;;5130113;27;20031;-67
2021/12/31 13:04:13;;;;;;;1.75;0.82;;;15.40;66.90;;;;;;5130110;27;20411;-67
2021/12/31 13:06:55;;;;;;;2.70;0.70;;;15.30;66.80;;;;;;5128941;28;20483;-67
2021/12/31 13:09:23;;;;;;;1.45;0.73;;;15.40;66.90;;;;;;5129120;28;20375;-67
2021/12/31 13:11:52;;;;;;;1.95;0.68;;;15.30;67.00;;;;;;5128872;28;20470;-67
2021/12/31 13:14:21;;;;;;;2.13;1.15;;;15.30;67.10;;;;;;5128897;28;20478;-67
2021/12/31 13:16:51;;;;;;;2.75;0.90;;;15.30;67.10;;;;;;5128671;28;20046;-67
2021/12/31 13:19:26;;;;;;;2.47;0.90;;;15.30;67.20;;;;;;5128929;28;20043;-67
2021/12/31 13:21:59;;;;;;;2.67;0.95;;;15.30;67.30;;;;;;5128640;28;20084;-67
2021/12/31 13:24:26;;;;;;;2.45;0.80;;;15.30;67.40;;;;;;5129867;27;20084;-67
2021/12/31 13:26:53;;;;;;;1.98;0.98;;;15.30;67.40;;;;;;5128855;28;20080;-67
2021/12/31 13:29:33;;;;;;;2.25;0.98;;;15.30;67.40;;;;;;5128727;28;20047;-67
2021/12/31 13:32:19;;;;;;;3.40;0.93;;;15.30;67.50;;;;;;5128467;28;20047;-67
2021/12/31 13:34:48;;;;;;;1.88;0.90;;;15.30;67.70;;;;;;5128575;28;20036;-67